Latest Weather Observations for Lake Macquarie - Cooranbong

IDN60801

Issued at 11:42 pm EDT Friday 14 December 2018 (issued every 10 minutes, with the page automatically refreshed every 10 minutes)

About weather observations | Map of weather stations | Latest weather observations for NSW | Other Formats
Station Details ID: 061412 Name: LAKE MACQUARIE AWS Lat: -33.09 Lon: 151.46 Height: 6.0 m
Data from the previous 72 hours. | See also: Recent months at Lake Macquarie - Cooranbong
Date/Time
EDT
Temp
°C
App
Temp
°C
Dew
Point
°C
Rel
Hum
%
Delta-T
°C
Wind Press
QNH
hPa
Press
MSL
hPa
Rain since
9am
mm
Dir  Spd
km/h
Gust
km/h
Spd
kts
Gust
kts
14/11:30pm 21.6 25.4 20.9 96 0.5 NW 2 2 1 1 1004.9 1004.9 1.8
14/11:00pm 21.5 25.6 20.7 95 0.5 CALM 0 0 0 0 1005.1 1005.1 1.8
14/10:30pm 21.7 25.5 20.9 95 0.5 N 2 6 1 3 1005.6 1005.6 1.8
14/10:00pm 22.1 25.2 21.1 94 0.7 SW 6 9 3 5 1004.9 1004.9 1.8
14/09:30pm 22.1 26.2 20.7 92 0.9 CALM 0 2 0 1 1005.3 1005.3 1.2
14/09:00pm 22.4 26.2 20.9 91 1.0 N 2 4 1 2 1005.2 1005.2 1.2
14/08:30pm 23.3 27.6 21.2 88 1.4 CALM 0 4 0 2 1004.6 1004.6 1.2
14/08:00pm 23.4 27.6 20.9 86 1.6 CALM 0 4 0 2 1004.3 1004.2 1.2
14/07:30pm 23.7 27.0 20.8 84 1.9 ESE 4 7 2 4 1003.9 1003.8 1.2
14/07:00pm 23.6 26.4 20.5 83 2.0 WSW 6 11 3 6 1003.4 1003.3 1.2
14/06:30pm 23.3 26.1 20.4 84 1.9 WSW 6 9 3 5 1003.5 1003.4 1.2
14/06:00pm 24.3 27.6 20.8 81 2.3 SSW 4 9 2 5 1003.4 1003.3 1.2
14/05:30pm 24.1 26.9 20.4 80 2.4 SSE 6 15 3 8 1002.6 1002.5 1.2
14/05:00pm 23.3 26.5 20.6 85 1.8 SSW 4 9 2 5 1002.9 1002.8 1.2
14/04:30pm 22.5 25.9 21.0 91 1.0 SW 4 9 2 5 1003.0 1002.9 1.2
14/04:00pm 22.2 25.2 20.8 92 0.9 SSW 6 13 3 7 1002.5 1002.4 1.2
14/03:30pm 23.2 26.5 20.7 86 1.6 SW 4 7 2 4 1003.6 1003.5 0.2
14/03:00pm 23.6 26.4 20.5 83 2.0 ESE 6 13 3 7 1002.2 1002.1 0.0
14/02:30pm 25.6 27.9 19.9 70 3.7 SE 7 13 4 7 1002.1 1002.0 0.0
14/02:00pm 26.7 28.9 20.3 68 4.2 SE 9 17 5 9 1001.2 1001.1 0.0
14/01:30pm 26.6 29.3 21.4 73 3.5 SE 9 17 5 9 1001.8 1001.7 0.0
14/01:00pm 26.6 30.3 20.7 70 3.9 SSE 2 6 1 3 1002.4 1002.3 0.0
14/12:30pm 26.7 30.1 21.0 71 3.8 S 4 7 2 4 1002.4 1002.3 0.0
14/12:00pm 26.1 29.6 21.1 74 3.3 SSE 4 6 2 3 1002.6 1002.5 0.0
14/11:30am 25.2 29.1 21.1 78 2.7 SSE 2 9 1 5 1002.5 1002.4 0.0
14/11:00am 23.2 27.3 20.7 86 1.6 CALM 0 4 0 2 1002.5 1002.4 0.0
14/10:30am 22.4 25.9 20.3 88 1.4 WSW 2 6 1 3 1002.6 1002.5 0.0
14/10:00am 22.2 26.1 20.3 89 1.2 CALM 0 4 0 2 1002.5 1002.4 0.0
14/09:30am 21.9 25.6 20.0 89 1.2 CALM 0 2 0 1 1002.6 1002.5 0.0
14/09:00am 21.9 24.9 20.0 89 1.2 WNW 4 6 2 3 1003.0 1002.9 2.0
14/08:30am 21.6 24.8 19.7 89 1.2 NNW 2 6 1 3 1002.6 1002.5 2.0
14/08:00am 21.0 24.6 19.7 92 0.8 CALM 0 6 0 3 1002.1 1002.0 2.0
14/07:30am 20.2 23.6 19.4 95 0.5 CALM 0 0 0 0 1002.0 1001.9 2.0
14/07:00am 19.9 22.8 19.1 95 0.5 NW 2 6 1 3 1002.0 1001.9 2.0
14/06:30am 19.5 22.7 18.8 96 0.4 CALM 0 2 0 1 1001.6 1001.5 2.0
14/06:00am 19.3 22.0 18.6 96 0.4 N 2 2 1 1 1001.2 1001.1 1.8
14/05:30am 19.3 22.4 18.6 96 0.4 CALM 0 4 0 2 1000.9 1000.8 1.8
14/05:00am 19.3 22.4 18.6 96 0.4 CALM 0 0 0 0 1000.3 1000.2 1.8
14/04:30am 19.4 22.1 18.7 96 0.4 ESE 2 4 1 2 999.8 999.7 1.8
14/04:00am 19.5 21.9 18.7 95 0.5 W 4 6 2 3 999.6 999.5 1.8
14/03:30am 19.6 22.8 18.8 95 0.5 CALM 0 0 0 0 999.6 999.5 1.8
14/03:00am 19.6 22.8 18.9 96 0.4 CALM 0 0 0 0 1000.0 999.9 1.8
14/02:30am 19.7 22.9 18.9 95 0.5 CALM 0 0 0 0 999.8 999.7 1.8
14/02:00am 19.7 22.9 18.9 95 0.5 CALM 0 0 0 0 999.7 999.6 1.8
14/01:30am 20.0 23.3 19.2 95 0.5 CALM 0 0 0 0 999.4 999.3 1.8
14/01:00am 20.0 23.0 19.3 96 0.4 N 2 6 1 3 999.6 999.5 1.8
14/12:30am 20.2 23.5 19.2 94 0.6 CALM 0 2 0 1 1000.1 1000.0 1.8
14/12:00am 20.6 23.8 19.8 95 0.5 SW 2 6 1 3 1000.7 1000.6 1.8
 
Date/Time
EDT
Temp
°C
App
Temp
°C
Dew
Point
°C
Rel
Hum
%
Delta-T
°C
Wind Press
QNH
hPa
Press
MSL
hPa
Rain since
9am
mm
Dir  Spd
km/h
Gust
km/h
Spd
kts
Gust
kts
13/11:30pm 20.7 24.2 19.5 93 0.8 CALM 0 0 0 0 1001.0 1000.9 1.8
13/11:00pm 20.8 23.2 19.6 93 0.8 SSE 6 7 3 4 1000.6 1000.5 1.8
13/10:30pm 20.9 24.0 19.6 92 0.8 N 2 4 1 2 1000.6 1000.5 1.8
13/10:00pm 20.9 23.7 19.6 92 0.8 NNW 4 6 2 3 1000.1 1000.0 1.8
13/09:30pm 21.0 23.9 19.8 93 0.8 N 4 6 2 3 1000.0 999.9 1.8
13/09:00pm 21.4 25.1 20.0 92 0.9 CALM 0 2 0 1 999.6 999.5 1.8
13/08:30pm 21.5 24.7 19.8 90 1.1 ENE 2 6 1 3 1000.0 999.9 1.8
13/08:00pm 21.7 24.1 19.6 88 1.3 N 6 11 3 6 999.4 999.3 1.8
13/07:30pm 24.4 26.0 19.9 76 2.9 NNW 11 24 6 13 1000.0 999.9 0.6
13/07:00pm 25.3 28.5 19.7 71 3.6 NNE 2 9 1 5 998.5 998.4 0.0
13/06:30pm 26.1 29.0 19.0 65 4.5 NE 2 4 1 2 998.4 998.3 0.0
13/06:00pm 26.3 29.7 20.2 69 4.0 E 2 4 1 2 998.2 998.1 0.0
13/05:30pm 26.9 29.2 19.8 65 4.6 E 7 15 4 8 997.7 997.6 0.0
13/05:00pm 27.9 29.8 18.6 57 6.0 NE 6 15 3 8 997.8 997.7 0.0
13/04:30pm 27.4 28.9 19.7 63 5.0 ESE 11 17 6 9 998.1 998.0 0.0
13/04:00pm 26.8 28.5 20.2 67 4.3 E 11 19 6 10 998.9 998.8 0.0
13/03:30pm 27.5 30.5 21.3 69 4.1 E 7 15 4 8 999.4 999.3 0.0
13/03:00pm 26.9 29.5 20.5 68 4.2 E 7 13 4 7 1000.1 1000.0 0.0
13/02:30pm 26.8 29.0 20.4 68 4.2 E 9 17 5 9 1000.9 1000.8 0.0
13/02:00pm 26.1 27.9 20.4 71 3.7 E 11 19 6 10 1001.4 1001.3 0.0
13/01:30pm 25.4 26.7 20.2 73 3.4 ESE 13 19 7 10 1001.7 1001.6 0.0
13/01:00pm 24.9 26.5 19.9 74 3.2 E 11 19 6 10 1002.2 1002.1 0.0
13/12:30pm 24.4 26.3 20.5 79 2.5 ESE 11 17 6 9 1002.6 1002.5 0.0
13/12:00pm 24.9 27.6 20.6 77 2.8 E 7 11 4 6 1003.3 1003.2 0.0
13/11:30am 24.9 27.5 20.4 76 2.9 E 7 15 4 8 1003.2 1003.1 0.0
13/11:00am 25.3 28.4 21.4 79 2.6 ENE 7 11 4 6 1003.3 1003.2 0.0
13/10:30am 24.3 27.4 20.2 78 2.7 E 4 7 2 4 1003.9 1003.8 0.0
13/10:00am 23.7 26.8 19.4 77 2.8 ESE 2 6 1 3 1004.4 1004.3 0.0
13/09:30am 23.1 26.0 19.1 78 2.5 N 2 6 1 3 1004.9 1004.9 0.0
13/09:00am 22.9 25.4 19.9 83 1.9 N 6 9 3 5 1004.9 1004.9 0.6
13/08:30am 22.5 24.2 19.3 82 2.0 N 9 17 5 9 1005.2 1005.2 0.6
13/08:00am 21.7 23.6 18.9 84 1.8 NNE 7 11 4 6 1005.1 1005.1 0.6
13/07:30am 20.9 22.7 18.8 88 1.3 NNE 7 13 4 7 1005.3 1005.3 0.6
13/07:00am 19.7 22.9 18.9 95 0.5 CALM 0 4 0 2 1005.7 1005.7 0.6
13/06:30am 19.5 21.5 18.7 95 0.5 N 6 9 3 5 1005.5 1005.5 0.6
13/06:00am 19.2 21.5 18.5 96 0.4 N 4 6 2 3 1005.6 1005.6 0.6
13/05:30am 19.2 22.2 18.5 96 0.4 CALM 0 0 0 0 1005.3 1005.3 0.4
13/05:00am 19.3 22.3 18.5 95 0.5 CALM 0 0 0 0 1005.2 1005.2 0.4
13/04:30am 19.3 22.3 18.5 95 0.5 CALM 0 0 0 0 1006.6 1006.6 0.4
13/04:00am 19.5 22.6 18.7 95 0.5 CALM 0 0 0 0 1007.4 1007.4 0.4
13/03:30am 19.6 22.7 18.6 94 0.6 CALM 0 0 0 0 1007.6 1007.6 0.2
13/03:00am 19.7 22.8 18.7 94 0.6 CALM 0 0 0 0 1007.5 1007.5 0.2
13/02:30am 19.7 22.8 18.7 94 0.6 CALM 0 0 0 0 1007.1 1007.1 0.2
13/02:00am 19.7 22.5 18.9 95 0.5 SE 2 6 1 3 1007.1 1007.1 0.2
13/01:30am 19.7 22.9 18.9 95 0.5 CALM 0 0 0 0 1007.9 1007.9 0.2
13/01:00am 19.4 22.4 18.4 94 0.6 CALM 0 2 0 1 1007.9 1007.9 0.2
13/12:30am 19.4 22.4 18.4 94 0.6 CALM 0 0 0 0 1008.5 1008.5 0.2
13/12:00am 19.6 22.6 18.4 93 0.7 CALM 0 0 0 0 1009.1 1009.1 0.2
 
Date/Time
EDT
Temp
°C
App
Temp
°C
Dew
Point
°C
Rel
Hum
%
Delta-T
°C
Wind Press
QNH
hPa
Press
MSL
hPa
Rain since
9am
mm
Dir  Spd
km/h
Gust
km/h
Spd
kts
Gust
kts
12/11:30pm 19.9 23.0 18.6 92 0.8 CALM 0 0 0 0 1009.9 1009.9 0.2
12/11:00pm 20.1 23.2 18.6 91 0.9 CALM 0 0 0 0 1010.4 1010.4 0.2
12/10:30pm 20.1 23.0 18.2 89 1.2 CALM 0 0 0 0 1010.6 1010.6 0.2
12/10:00pm 20.6 23.2 18.4 87 1.4 ENE 2 4 1 2 1010.5 1010.5 0.2
12/09:30pm 21.0 23.2 18.4 85 1.6 E 4 6 2 3 1010.7 1010.7 0.2
12/09:00pm 21.1 23.3 18.3 84 1.7 NE 4 7 2 4 1010.4 1010.4 0.2
12/08:30pm 21.3 23.5 18.3 83 1.9 NE 4 6 2 3 1010.4 1010.4 0.2
12/08:00pm 21.4 23.2 18.2 82 2.0 E 6 11 3 6 1010.6 1010.6 0.2
12/07:30pm 21.7 23.3 18.3 81 2.1 ENE 7 11 4 6 1010.7 1010.7 0.2
12/07:00pm 21.8 23.9 18.0 79 2.4 ENE 4 9 2 5 1011.1 1011.1 0.2
12/06:30pm 21.9 23.8 18.5 81 2.1 ENE 6 13 3 7 1011.0 1011.0 0.2
12/06:00pm 21.6 23.8 18.4 82 2.0 ENE 4 7 2 4 1010.8 1010.8 0.2
12/05:30pm 21.6 23.2 18.2 81 2.1 E 7 17 4 9 1011.1 1011.1 0.2
12/05:00pm 21.6 22.9 18.4 82 2.0 E 9 20 5 11 1011.3 1011.3 0.2
12/04:30pm 21.7 22.9 18.3 81 2.1 E 9 17 5 9 1011.7 1011.7 0.2
12/04:00pm 21.9 22.8 18.3 80 2.3 E 11 22 6 12 1012.0 1012.0 0.2
12/03:30pm 22.0 23.0 18.6 81 2.1 E 11 20 6 11 1012.4 1012.4 0.2
12/03:00pm 22.1 22.5 18.9 82 2.0 ESE 15 20 8 11 1012.8 1012.8 0.2
12/02:30pm 22.3 23.9 19.1 82 2.0 E 9 17 5 9 1013.3 1013.3 0.2
12/02:00pm 21.7 22.6 18.3 81 2.1 ESE 11 17 6 9 1013.7 1013.7 0.2
12/01:30pm 21.8 22.7 18.4 81 2.1 ESE 11 20 6 11 1014.1 1014.1 0.2
12/01:00pm 21.9 23.3 17.7 77 2.6 E 7 15 4 8 1014.4 1014.4 0.2
12/12:30pm 21.9 24.6 18.7 82 2.0 SSE 2 6 1 3 1014.8 1014.8 0.2
12/12:00pm 21.1 24.1 18.5 85 1.6 CALM 0 4 0 2 1015.4 1015.4 0.2
12/11:30am 21.9 23.0 18.1 79 2.4 E 9 17 5 9 1015.6 1015.6 0.0
12/11:00am 21.8 24.0 18.4 81 2.1 NE 4 6 2 3 1015.7 1015.7 0.0
12/10:30am 21.4 24.7 19.0 86 1.5 CALM 0 6 0 3 1015.8 1015.8 0.0
12/10:00am 21.1 24.2 18.7 86 1.5 CALM 0 2 0 1 1016.0 1016.0 0.0
12/09:30am 20.6 23.5 19.1 91 0.9 SSE 2 4 1 2 1016.2 1016.2 0.0
12/09:00am 20.3 23.3 18.4 89 1.2 CALM 0 0 0 0 1016.5 1016.5 7.2
12/08:30am 19.9 22.2 18.6 92 0.8 NW 4 6 2 3 1016.5 1016.5 7.2
12/08:00am 19.5 22.3 18.8 96 0.4 NW 2 4 1 2 1016.5 1016.5 7.2
12/07:30am 18.9 21.4 18.2 96 0.4 WNW 2 9 1 5 1016.2 1016.2 7.2
12/07:00am 18.6 21.0 17.9 96 0.4 SSW 2 4 1 2 1016.1 1016.1 5.8
12/06:30am 18.4 20.4 17.8 96 0.4 WSW 4 6 2 3 1016.0 1016.0 2.8
12/06:00am 18.2 20.5 17.6 96 0.4 SW 2 6 1 3 1015.8 1015.8 2.0
12/05:30am 18.0 20.6 17.4 96 0.4 CALM 0 0 0 0 1015.7 1015.7 1.0
12/05:00am 17.9 20.4 17.3 96 0.4 CALM 0 0 0 0 1015.6 1015.6 1.0
12/04:30am 17.7 20.2 17.2 97 0.3 CALM 0 0 0 0 1015.6 1015.6 1.0
12/04:00am 17.1 19.3 16.6 97 0.3 CALM 0 0 0 0 1015.7 1015.7 1.0
12/03:30am 16.6 18.6 16.1 97 0.3 CALM 0 0 0 0 1015.8 1015.8 1.0
12/03:00am 16.7 18.8 16.2 97 0.3 CALM 0 2 0 1 1015.9 1015.9 1.0
12/02:30am 16.3 18.2 15.7 96 0.4 CALM 0 0 0 0 1015.9 1015.9 1.0
12/02:00am 16.6 18.5 15.8 95 0.5 CALM 0 0 0 0 1016.1 1016.1 1.0
12/01:30am 17.0 19.1 16.2 95 0.5 CALM 0 4 0 2 1016.6 1016.6 1.0
12/01:00am 17.3 19.2 16.7 96 0.4 NW 2 2 1 1 1017.0 1017.0 1.0
12/12:30am 17.2 19.4 16.6 96 0.4 CALM 0 0 0 0 1017.5 1017.5 1.0
12/12:00am 17.7 20.1 16.9 95 0.5 CALM 0 0 0 0 1017.7 1017.7 1.0

Other Formats:

Comma delimited format used in spreadsheet applications
http://www.bom.gov.au/fwo/IDN60801/IDN60801.95767.axf

JavaScript Object Notation format (JSON) in row-major order
http://www.bom.gov.au/fwo/IDN60801/IDN60801.95767.json